Vilas, Texas
Current Conditions -  °F | °C
As of 9:58 PM on Tuesday 25 Nov 2014 (Local Time) from KGRK Reporting Station
Haze Haze  
Wind Chill: 43°   Ceiling: Unl
Heat Index: 43°   Visibility: 4mi
Dew Point: 31°   Wind: 2mph
Humidity: 63%   Direction: 250°WSW
Pressure: 30.18"   Gusts: NA
Location:  30.8644°N, 97.3623°W
Report Text: KGRK 260358Z AUTO 25002KT 4SM HZ CLR 06/00 A3018 RMK AO2 SLP222 T00631003
Loading
Personal Weather Stations






























Interactive Weather Map New forecast layout! Learn more

10-Day Weather Forecast

Advertisements
Track Severe Weather on mobile